createdAt,value
2023-02-06T00:01:27.413Z,10.57
2023-02-06T00:04:16.755Z,9.13
2023-02-06T00:07:05.822Z,9.20
2023-02-06T00:09:55.027Z,8.85
2023-02-06T00:12:44.210Z,11.60
2023-02-06T00:15:34.256Z,9.32
2023-02-06T00:18:24.780Z,10.57
2023-02-06T00:21:14.317Z,9.43
2023-02-06T00:24:06.893Z,11.45
2023-02-06T00:26:55.865Z,9.25
2023-02-06T00:29:44.983Z,9.88
2023-02-06T00:32:35.394Z,8.85
2023-02-06T00:35:27.208Z,9.85
2023-02-06T00:38:17.785Z,9.73
2023-02-06T00:41:08.496Z,10.52
2023-02-06T00:43:59.154Z,8.25
2023-02-06T00:46:48.266Z,8.75
2023-02-06T00:49:38.708Z,11.45
2023-02-06T00:52:30.454Z,8.82
2023-02-06T00:55:20.908Z,9.18
2023-02-06T00:58:09.877Z,11.57
2023-02-06T01:01:01.150Z,10.50
2023-02-06T01:03:51.848Z,10.13
2023-02-06T01:06:42.593Z,10.68
2023-02-06T01:09:35.019Z,9.52
2023-02-06T01:12:26.037Z,8.48
2023-02-06T01:15:18.605Z,9.40
2023-02-06T01:18:08.654Z,9.10
2023-02-06T01:20:57.572Z,8.48
2023-02-06T01:23:46.699Z,10.50
2023-02-06T01:26:36.879Z,9.73
2023-02-06T01:29:25.300Z,10.05
2023-02-06T01:32:13.870Z,9.18
2023-02-06T01:35:02.359Z,9.07
2023-02-06T01:37:50.823Z,8.45
2023-02-06T01:40:39.138Z,9.38
2023-02-06T01:43:33.466Z,9.73
2023-02-06T01:46:21.623Z,9.57
2023-02-06T01:49:15.388Z,8.52
2023-02-06T01:52:10.173Z,8.27
2023-02-06T01:55:04.198Z,8.27
2023-02-06T01:57:53.277Z,9.40
2023-02-06T02:00:43.430Z,7.38
2023-02-06T02:03:35.630Z,9.60
2023-02-06T02:06:27.681Z,10.95
2023-02-06T02:09:16.699Z,9.68
2023-02-06T02:12:05.338Z,8.40
2023-02-06T02:14:55.874Z,10.45
2023-02-06T02:17:57.434Z,9.88
2023-02-06T02:21:10.937Z,9.35
2023-02-06T02:30:38.616Z,10.68
2023-02-06T02:33:59.934Z,10.15
2023-02-06T02:36:57.160Z,8.60
2023-02-06T02:39:53.799Z,10.07
2023-02-06T02:42:46.871Z,10.75
2023-02-06T02:45:44.139Z,8.82
2023-02-06T02:48:38.088Z,9.52
2023-02-06T02:51:27.568Z,11.07
2023-02-06T02:54:17.888Z,10.25
2023-02-06T02:57:10.658Z,9.80
2023-02-06T03:00:02.074Z,11.85
2023-02-06T03:02:53.760Z,9.93
2023-02-06T03:05:53.114Z,10.80
2023-02-06T03:08:50.668Z,14.00
2023-02-06T03:11:46.645Z,10.18
2023-02-06T03:14:42.353Z,10.98
2023-02-06T03:17:36.102Z,12.48
2023-02-06T03:20:29.217Z,10.15
2023-02-06T03:26:13.686Z,20.42
2023-02-06T03:29:06.985Z,12.48
2023-02-06T03:32:00.421Z,10.27
2023-02-06T03:34:56.801Z,7.88
2023-02-06T03:37:46.346Z,9.52
2023-02-06T03:40:36.249Z,9.32
2023-02-06T03:43:29.179Z,10.50
2023-02-06T03:49:13.369Z,9.40
2023-02-06T03:52:06.003Z,10.73
2023-02-06T03:55:00.306Z,13.52
2023-02-06T03:57:56.026Z,11.25
2023-02-06T04:00:47.050Z,12.30
2023-02-06T04:03:38.360Z,9.30
2023-02-06T04:06:27.587Z,11.55
2023-02-06T04:09:16.681Z,11.45
2023-02-06T04:12:06.080Z,11.82
2023-02-06T04:14:57.840Z,14.07
2023-02-06T04:17:59.307Z,13.20
2023-02-06T04:20:52.585Z,11.85
2023-02-06T04:23:41.562Z,13.70
2023-02-06T04:26:30.672Z,13.95
2023-02-06T04:29:19.710Z,15.55
2023-02-06T04:32:09.253Z,11.93
2023-02-06T04:34:58.621Z,14.27
2023-02-06T04:37:49.257Z,16.63
2023-02-06T04:40:38.391Z,14.68
2023-02-06T04:43:27.567Z,14.75
2023-02-06T04:46:16.800Z,13.60
2023-02-06T04:49:05.716Z,17.63
2023-02-06T04:51:55.045Z,13.38
2023-02-06T04:54:45.471Z,15.85
2023-02-06T04:57:34.582Z,14.35
2023-02-06T05:00:24.003Z,15.57
2023-02-06T05:03:13.018Z,14.80
2023-02-06T05:06:03.844Z,12.70
2023-02-06T05:08:52.503Z,13.25
2023-02-06T05:11:43.060Z,10.90
2023-02-06T05:14:32.251Z,12.82
2023-02-06T05:17:21.013Z,16.30
2023-02-06T05:20:10.866Z,12.75
2023-02-06T05:23:00.084Z,15.43
2023-02-06T05:25:52.217Z,14.13
2023-02-06T05:28:44.976Z,14.27
2023-02-06T05:34:25.619Z,14.32
2023-02-06T05:37:14.654Z,13.70
2023-02-06T05:40:03.924Z,11.25
2023-02-06T05:42:55.229Z,13.68
2023-02-06T05:45:47.582Z,12.77
2023-02-06T05:48:36.892Z,15.98
2023-02-06T05:51:27.576Z,16.02
2023-02-06T05:54:18.360Z,14.27
2023-02-06T05:57:07.683Z,12.98
2023-02-06T05:59:56.797Z,11.98
2023-02-06T06:02:47.408Z,15.23
2023-02-06T06:05:36.978Z,13.85
2023-02-06T06:08:26.228Z,14.07
2023-02-06T06:11:15.274Z,14.10
2023-02-06T06:14:04.853Z,12.43
2023-02-06T06:16:54.016Z,16.95
2023-02-06T06:19:44.679Z,13.30
2023-02-06T06:22:34.238Z,14.35
2023-02-06T06:25:23.419Z,12.43
2023-02-06T06:28:12.558Z,12.95
2023-02-06T06:31:06.016Z,14.57
2023-02-06T06:33:55.222Z,12.30
2023-02-06T06:36:45.867Z,13.50
2023-02-06T06:39:35.021Z,11.68
2023-02-06T06:42:24.185Z,14.18
2023-02-06T06:45:13.472Z,12.35
2023-02-06T06:48:02.668Z,13.48
2023-02-06T06:50:52.280Z,15.98
2023-02-06T06:53:42.633Z,13.13
2023-02-06T06:56:31.411Z,12.75
2023-02-06T06:59:20.605Z,12.30
2023-02-06T07:02:11.508Z,11.23
2023-02-06T07:05:01.123Z,11.98
2023-02-06T07:07:49.939Z,14.50
2023-02-06T07:10:40.733Z,14.18
2023-02-06T07:13:33.515Z,15.50
2023-02-06T07:16:22.969Z,12.38
2023-02-06T07:19:12.361Z,10.88
2023-02-06T07:22:01.229Z,12.82
2023-02-06T07:24:50.279Z,14.32
2023-02-06T07:27:41.162Z,14.43
2023-02-06T07:30:30.324Z,10.95
2023-02-06T07:33:19.494Z,13.95
2023-02-06T07:36:12.939Z,18.27
2023-02-06T07:39:02.827Z,15.93
2023-02-06T07:41:53.460Z,12.15
2023-02-06T07:44:45.550Z,12.70
2023-02-06T07:47:36.390Z,14.30
2023-02-06T07:50:27.392Z,15.48
2023-02-06T07:53:18.274Z,14.27
2023-02-06T07:56:14.304Z,12.18
2023-02-06T07:59:05.752Z,11.38
2023-02-06T08:01:58.149Z,12.60
2023-02-06T08:04:49.551Z,13.88
2023-02-06T08:07:40.432Z,16.42
2023-02-06T08:10:30.458Z,12.82
2023-02-06T08:13:20.127Z,15.15
2023-02-06T08:16:12.670Z,13.18
2023-02-06T08:19:03.681Z,21.63
2023-02-06T08:21:51.769Z,12.90
2023-02-06T08:24:39.903Z,15.15
2023-02-06T08:27:29.770Z,17.02
2023-02-06T08:30:19.347Z,16.67
2023-02-06T08:33:08.983Z,14.88
2023-02-06T08:36:02.345Z,21.08
2023-02-06T08:38:53.095Z,16.77
2023-02-06T08:41:44.672Z,13.60
2023-02-06T08:44:34.364Z,17.70
2023-02-06T08:47:22.425Z,19.13
2023-02-06T08:50:10.623Z,23.77
2023-02-06T08:53:00.119Z,20.45
2023-02-06T08:55:50.022Z,18.08
2023-02-06T08:58:40.553Z,22.67
2023-02-06T09:01:29.847Z,16.80
2023-02-06T09:04:19.426Z,18.60
2023-02-06T09:07:07.523Z,18.88
2023-02-06T09:09:57.054Z,18.15
2023-02-06T09:12:44.801Z,16.60
2023-02-06T09:15:32.633Z,16.02
2023-02-06T09:18:21.011Z,20.55
2023-02-06T09:21:11.580Z,31.15
2023-02-06T09:24:02.298Z,17.08
2023-02-06T09:26:59.814Z,24.90
2023-02-06T09:29:48.839Z,17.52
2023-02-06T09:32:37.913Z,21.95
2023-02-06T09:35:28.500Z,19.88
2023-02-06T09:38:16.562Z,17.08
2023-02-06T09:41:07.882Z,17.85
2023-02-06T09:43:59.835Z,28.38
2023-02-06T09:46:51.033Z,17.45
2023-02-06T09:49:45.367Z,23.52
2023-02-06T09:52:49.806Z,17.20
2023-02-06T09:55:42.826Z,21.20
2023-02-06T10:01:34.803Z,22.58
2023-02-06T10:04:41.461Z,19.10
2023-02-06T10:07:48.960Z,22.45
2023-02-06T10:10:41.922Z,24.13
2023-02-06T10:13:35.647Z,24.83
2023-02-06T10:16:39.504Z,21.00
2023-02-06T10:19:38.633Z,20.20
2023-02-06T10:22:33.150Z,37.95
2023-02-06T10:25:28.387Z,20.17
2023-02-06T10:28:24.848Z,22.85
2023-02-06T10:31:40.832Z,20.27
2023-02-06T10:34:56.300Z,19.13
2023-02-06T10:38:21.684Z,20.83
2023-02-06T10:41:17.893Z,19.50
2023-02-06T10:44:19.438Z,19.52
2023-02-06T10:47:24.967Z,21.45
2023-02-06T10:50:27.054Z,19.52
2023-02-06T10:53:20.767Z,15.93
2023-02-06T10:56:12.776Z,19.27
2023-02-06T10:59:08.147Z,18.40
2023-02-06T11:02:14.573Z,20.48
2023-02-06T11:05:09.238Z,18.65
2023-02-06T11:08:09.343Z,19.75
2023-02-06T11:10:59.494Z,18.08
2023-02-06T11:13:54.234Z,17.83
2023-02-06T11:16:45.401Z,17.50
2023-02-06T11:19:35.574Z,16.50
2023-02-06T11:22:29.855Z,18.55
2023-02-06T11:25:28.450Z,15.48
2023-02-06T11:28:23.158Z,18.73
2023-02-06T11:31:13.641Z,16.77
2023-02-06T11:34:04.070Z,20.00
2023-02-06T11:36:56.802Z,14.00
2023-02-06T11:39:47.016Z,16.30
2023-02-06T11:42:38.611Z,12.77
2023-02-06T11:45:32.763Z,14.27
2023-02-06T11:48:39.715Z,16.05
2023-02-06T11:51:45.774Z,14.55
2023-02-06T11:54:36.746Z,13.82
2023-02-06T11:57:28.103Z,13.13
2023-02-06T12:00:26.384Z,12.70
2023-02-06T12:03:36.734Z,12.30
2023-02-06T12:06:33.837Z,13.63
2023-02-06T12:09:24.738Z,15.05
2023-02-06T12:12:22.525Z,11.32
2023-02-06T12:15:43.597Z,12.68
2023-02-06T12:18:35.994Z,11.02
2023-02-06T12:21:35.230Z,16.50
2023-02-06T12:24:32.540Z,10.38
2023-02-06T12:27:26.712Z,14.25
2023-02-06T12:30:31.121Z,11.95
2023-02-06T12:33:25.548Z,13.73
2023-02-06T12:36:20.897Z,14.55
2023-02-06T12:39:20.542Z,14.13
2023-02-06T12:42:26.603Z,13.65
2023-02-06T12:45:32.457Z,12.55
2023-02-06T12:48:39.194Z,11.10
2023-02-06T12:51:36.268Z,11.55
2023-02-06T12:54:30.652Z,13.68
2023-02-06T12:57:22.904Z,12.60
2023-02-06T13:00:46.277Z,12.90
2023-02-06T13:03:43.179Z,11.32
2023-02-06T13:06:43.625Z,13.75
2023-02-06T13:09:36.135Z,9.13
2023-02-06T13:12:29.163Z,12.15
2023-02-06T13:18:52.534Z,6.00
2023-02-06T13:21:51.340Z,10.82
2023-02-06T13:24:43.488Z,8.52
2023-02-06T13:27:43.492Z,11.20
2023-02-06T13:31:00.642Z,11.55
2023-02-06T13:33:54.871Z,10.93
2023-02-06T13:37:18.361Z,9.63
2023-02-06T13:40:32.239Z,10.45
2023-02-06T13:43:27.610Z,14.10
2023-02-06T13:46:20.987Z,10.18
2023-02-06T13:49:32.319Z,11.88
2023-02-06T13:52:29.662Z,10.10
2023-02-06T13:55:36.398Z,12.95
2023-02-06T13:58:42.249Z,11.35
2023-02-06T14:01:34.670Z,13.55
2023-02-06T14:04:28.855Z,13.38
2023-02-06T14:07:42.258Z,10.60
2023-02-06T14:11:07.682Z,12.27
2023-02-06T14:14:17.840Z,10.05
2023-02-06T14:17:22.060Z,12.88
2023-02-06T14:20:25.934Z,11.13
2023-02-06T14:23:29.934Z,12.40
2023-02-06T14:26:34.459Z,11.77
2023-02-06T14:29:36.528Z,12.82
2023-02-06T14:32:43.198Z,13.25
2023-02-06T14:36:11.774Z,13.50
2023-02-06T14:39:33.885Z,13.52
2023-02-06T14:42:32.333Z,11.55
2023-02-06T14:45:38.630Z,11.55
2023-02-06T14:48:38.873Z,11.45
2023-02-06T14:51:33.904Z,12.43
2023-02-06T14:54:33.828Z,10.68
2023-02-06T14:57:32.394Z,12.32
2023-02-06T15:00:24.225Z,10.65
2023-02-06T15:03:20.089Z,9.20
2023-02-06T15:06:12.862Z,9.88
2023-02-06T15:09:05.146Z,15.40
2023-02-06T15:11:57.587Z,12.32
2023-02-06T15:14:57.095Z,9.52
2023-02-06T15:17:58.023Z,10.85
2023-02-06T15:20:53.745Z,9.95
2023-02-06T15:23:57.961Z,11.50
2023-02-06T15:26:55.269Z,12.25
2023-02-06T15:29:52.103Z,10.30
2023-02-06T15:32:42.800Z,9.68
2023-02-06T15:35:36.322Z,11.25
2023-02-06T15:38:28.351Z,10.90
2023-02-06T15:41:19.087Z,11.53
2023-02-06T15:44:16.218Z,10.65
2023-02-06T15:47:13.024Z,11.00
2023-02-06T15:50:10.264Z,10.35
2023-02-06T15:53:02.040Z,13.48
2023-02-06T15:55:57.491Z,10.98
2023-02-06T15:58:47.669Z,12.90
2023-02-06T16:01:42.904Z,10.05
2023-02-06T16:04:38.266Z,10.00
2023-02-06T16:07:31.965Z,10.40
2023-02-06T16:10:26.773Z,11.90
2023-02-06T16:13:24.338Z,10.82
2023-02-06T16:16:24.629Z,11.60
2023-02-06T16:19:40.292Z,13.13
2023-02-06T16:22:31.568Z,9.45
2023-02-06T16:25:25.915Z,14.30
2023-02-06T16:28:27.013Z,11.27
2023-02-06T16:31:18.712Z,10.80
2023-02-06T16:34:32.172Z,11.25
2023-02-06T16:37:25.464Z,10.07
2023-02-06T16:40:16.699Z,9.88
2023-02-06T16:43:11.951Z,8.95
2023-02-06T16:46:04.714Z,10.23
2023-02-06T16:48:56.009Z,10.55
2023-02-06T16:51:48.618Z,10.30
2023-02-06T16:54:43.019Z,10.80
2023-02-06T16:57:42.884Z,11.75
2023-02-06T17:00:35.721Z,9.57
2023-02-06T17:03:27.357Z,8.57
2023-02-06T17:06:21.333Z,8.68
2023-02-06T17:09:16.392Z,10.02
2023-02-06T17:12:11.800Z,10.18
2023-02-06T17:15:02.947Z,9.82
2023-02-06T17:17:56.691Z,8.90
2023-02-06T17:20:50.103Z,12.20
2023-02-06T17:23:41.263Z,9.13
2023-02-06T17:26:32.505Z,8.35
2023-02-06T17:29:25.148Z,9.52
2023-02-06T17:32:21.695Z,10.23
2023-02-06T17:35:11.457Z,10.30
2023-02-06T17:38:01.123Z,8.60
2023-02-06T17:40:50.926Z,8.95
2023-02-06T17:43:40.682Z,7.90
2023-02-06T17:46:31.997Z,11.30
2023-02-06T17:49:23.318Z,12.35
2023-02-06T17:52:14.794Z,11.65
2023-02-06T17:55:05.644Z,14.88
2023-02-06T17:57:56.022Z,16.50
2023-02-06T18:00:47.749Z,17.55
2023-02-06T18:03:40.416Z,25.80
2023-02-06T18:06:32.377Z,35.15
2023-02-06T18:09:22.387Z,30.15
2023-02-06T18:12:12.214Z,32.28
2023-02-06T18:15:02.291Z,94.85
2023-02-06T18:17:54.795Z,40.33
2023-02-06T18:20:46.423Z,37.53
2023-02-06T18:23:36.500Z,29.50
2023-02-06T18:26:27.292Z,22.30
2023-02-06T18:29:17.254Z,25.70
2023-02-06T18:32:07.448Z,23.88
2023-02-06T18:34:58.343Z,19.65
2023-02-06T18:37:50.107Z,16.73
2023-02-06T18:40:41.003Z,16.00
2023-02-06T18:43:31.955Z,16.80
2023-02-06T18:46:22.731Z,17.42
2023-02-06T18:49:12.751Z,17.60
2023-02-06T18:52:02.645Z,12.43
2023-02-06T18:54:54.168Z,11.35
2023-02-06T18:57:44.163Z,14.70
2023-02-06T19:00:35.904Z,13.45
2023-02-06T19:03:26.431Z,10.73
2023-02-06T19:06:19.749Z,10.38
2023-02-06T19:09:12.273Z,10.63
2023-02-06T19:12:03.474Z,9.93
2023-02-06T19:14:53.367Z,12.18
2023-02-06T19:17:43.247Z,11.32
2023-02-06T19:20:32.730Z,11.82
2023-02-06T19:23:22.447Z,10.40
2023-02-06T19:26:15.549Z,10.52
2023-02-06T19:29:08.134Z,9.80
2023-02-06T19:31:57.722Z,9.18
2023-02-06T19:34:48.979Z,8.10
2023-02-06T19:37:38.848Z,8.43
2023-02-06T19:40:29.636Z,8.10
2023-02-06T19:43:20.928Z,8.77
2023-02-06T19:46:16.668Z,8.02
2023-02-06T19:49:08.806Z,7.32
2023-02-06T19:51:58.815Z,8.60
2023-02-06T19:54:49.787Z,7.00
2023-02-06T19:57:40.719Z,6.38
2023-02-06T20:00:30.994Z,10.23
2023-02-06T20:03:22.320Z,7.88
2023-02-06T20:06:15.258Z,7.22
2023-02-06T20:11:56.585Z,6.93
2023-02-06T20:14:46.431Z,6.38
2023-02-06T20:17:36.440Z,7.63
2023-02-06T20:20:27.977Z,6.70
2023-02-06T20:23:17.993Z,9.85
2023-02-06T20:26:07.409Z,7.28
2023-02-06T20:28:57.381Z,7.53
2023-02-06T20:31:47.079Z,6.85
2023-02-06T20:34:37.878Z,11.57
2023-02-06T20:37:29.801Z,7.38
2023-02-06T20:40:19.987Z,7.03
2023-02-06T20:43:09.972Z,7.55
2023-02-06T20:46:00.099Z,10.52
2023-02-06T20:48:54.398Z,6.85
2023-02-06T20:51:44.508Z,8.23
2023-02-06T20:54:35.953Z,4.65
2023-02-06T20:57:26.002Z,6.57
2023-02-06T21:00:17.043Z,9.75
2023-02-06T21:03:06.951Z,11.80
2023-02-06T21:06:00.660Z,7.68
2023-02-06T21:08:52.814Z,9.93
2023-02-06T21:11:44.619Z,6.30
2023-02-06T21:14:35.741Z,8.07
2023-02-06T21:17:26.935Z,9.70
2023-02-06T21:20:16.907Z,9.40
2023-02-06T21:23:07.787Z,6.68
2023-02-06T21:25:58.349Z,9.77
2023-02-06T21:28:50.956Z,8.68
2023-02-06T21:31:40.730Z,6.43
2023-02-06T21:34:31.888Z,7.80
2023-02-06T21:37:22.540Z,8.88
2023-02-06T21:40:17.108Z,8.00
2023-02-06T21:43:06.847Z,7.53
2023-02-06T21:45:58.434Z,8.00
2023-02-06T21:48:51.863Z,6.13
2023-02-06T21:51:42.168Z,7.43
2023-02-06T21:54:31.856Z,9.75
2023-02-06T21:57:21.918Z,10.32
2023-02-06T22:00:13.549Z,9.00
2023-02-06T22:03:07.861Z,7.88
2023-02-06T22:06:07.468Z,12.10
2023-02-06T22:09:05.045Z,10.05
2023-02-06T22:11:55.709Z,11.88
2023-02-06T22:14:45.701Z,10.65
2023-02-06T22:17:35.887Z,6.03
2023-02-06T22:20:27.449Z,9.10
2023-02-06T22:23:16.888Z,7.80
2023-02-06T22:26:07.819Z,8.82
2023-02-06T22:28:58.060Z,9.60
2023-02-06T22:31:48.455Z,9.25
2023-02-06T22:34:38.507Z,9.43
2023-02-06T22:37:31.316Z,14.02
2023-02-06T22:40:21.665Z,8.95
2023-02-06T22:43:11.658Z,9.00
2023-02-06T22:46:01.632Z,11.45
2023-02-06T22:48:52.096Z,11.35
2023-02-06T22:51:42.906Z,11.43
2023-02-06T22:54:33.686Z,11.35
2023-02-06T22:57:24.053Z,13.30
2023-02-06T23:00:16.632Z,12.00
2023-02-06T23:03:05.749Z,11.63
2023-02-06T23:05:54.841Z,13.27
2023-02-06T23:08:44.594Z,12.88
2023-02-06T23:11:36.795Z,13.07
2023-02-06T23:14:27.496Z,16.17
2023-02-06T23:17:18.070Z,11.23
2023-02-06T23:20:07.748Z,17.10
2023-02-06T23:22:56.453Z,17.30
2023-02-06T23:25:47.620Z,21.88
2023-02-06T23:28:39.626Z,18.40
2023-02-06T23:31:28.927Z,32.47
2023-02-06T23:34:18.605Z,27.38
2023-02-06T23:37:07.100Z,33.88
2023-02-06T23:39:56.097Z,23.88
2023-02-06T23:42:45.153Z,17.13
2023-02-06T23:45:35.798Z,19.13
2023-02-06T23:48:24.815Z,21.80
2023-02-06T23:51:13.735Z,24.30
2023-02-06T23:54:02.249Z,24.75
2023-02-06T23:56:51.205Z,18.08
2023-02-06T23:59:39.896Z,20.83
